Otagawa — JD3046 — position and weather

sailwx.info

Track history (hours):
 
Tides and Currents Weather Stations Pressure Air Temp Water Temp Dewpoint Dewpoint Depression Visibility Wind Speed Wind Dir Waves Ship Positions

Otagawa

Last reported at 2016-Feb-08 09:33 UTC. Time now 2016-Feb-09 15:54 UTC.
Position N 35°03' E 139°31'.

Length 70 m; draft 4.7 m.

Type: Cargo ship. MMSI: 431001328.

Date/timePositionNaut miles runAvg speedWind from/ knotsBaromVisibWave heightAir tempDewpointWater temp
2016-Feb-08 09:33N 35°03' E 139°31'1110.8
2016-Feb-08 08:33N 35°09' E 139°43'10 9.6
2016-Feb-08 07:33N 35°18' E 139°44'6 6.3
2016-Feb-08 06:33N 35°24' E 139°41'0 0.0
2016-Feb-08 05:33N 35°24' E 139°41'0 0.0
2016-Feb-08 04:33N 35°24' E 139°41'1 1.2
2016-Feb-08 03:31N 35°23' E 139°40'0 0.0
2016-Feb-08 02:31N 35°23' E 139°40'0 0.0
2016-Feb-08 01:31N 35°23' E 139°40'0 0.0
2016-Feb-08 00:31N 35°23' E 139°40'0 0.0
2016-Feb-07 23:31N 35°23' E 139°40'0 0.0
2016-Feb-07 22:31N 35°23' E 139°40'0 0.0
2016-Feb-07 21:31N 35°23' E 139°40'0 0.0
2016-Feb-07 20:31N 35°23' E 139°40'0 0.0
2016-Feb-07 19:31N 35°23' E 139°40'0 0.0
2016-Feb-07 18:31N 35°23' E 139°40'0 0.0
2016-Feb-07 17:31N 35°23' E 139°40'0 0.0
2016-Feb-07 16:31N 35°23' E 139°40'4 3.9
2016-Feb-07 15:34N 35°20' E 139°43'10 9.7
2016-Feb-07 14:34N 35°11' E 139°46'20 0.4
2016-Feb-05 12:22N 34°51' E 139°42'1210.3
2016-Feb-05 11:11N 34°52' E 139°57'7 9.7
2016-Feb-05 10:29N 34°55' E 140°04'9 9.2
2016-Feb-05 09:33N 35°00' E 140°12'2110.0
2016-Feb-05 07:29N 35°15' E 140°30'1010.3
2016-Feb-05 06:31N 35°23' E 140°37'35 8.8
2016-Feb-05 02:33N 35°57' E 140°44'4 4.0
2016-Feb-05 01:33N 35°56' E 140°39'0 0.0
2016-Feb-05 00:31N 35°56' E 140°39'0 0.0
2016-Feb-04 23:33N 35°56' E 140°39'0 0.0
2016-Feb-04 22:33N 35°56' E 140°39'0 0.0
2016-Feb-04 21:33N 35°56' E 140°39'0 0.0
2016-Feb-04 20:33N 35°56' E 140°39'0 0.0
2016-Feb-04 19:33N 35°56' E 140°39'0 0.0
2016-Feb-04 18:27N 35°56' E 140°39'5 4.8
2016-Feb-04 17:28N 35°56' E 140°45'57 9.4
2016-Feb-04 11:21N 35°04' E 140°17'910.7
2016-Feb-04 10:32N 34°59' E 140°08'20 6.8
2016-Feb-04 07:33N 35°05' E 139°45'1110.6
2016-Feb-04 06:33N 35°16' E 139°46'10 9.6
2016-Feb-04 05:33N 35°25' E 139°43'4 4.2
2016-Feb-04 04:33N 35°29' E 139°45'4 3.8
2016-Feb-04 03:33N 35°26' E 139°46'1010.0
2016-Feb-04 02:33N 35°15' E 139°47'63 2.0
2016-Feb-02 18:26N 35°02' E 138°31'27 0.9
2016-Feb-01 13:12N 34°36' E 138°40'4710.0
2016-Feb-01 08:28N 35°01' E 139°29'1110.5
2016-Feb-01 07:24N 35°07' E 139°40'910.6
2016-Feb-01 06:33N 35°15' E 139°46'1010.1
2016-Feb-01 05:33N 35°24' E 139°43'2 2.3
2016-Feb-01 04:33N 35°26' E 139°41'0 0.4
2016-Feb-01 03:33N 35°27' E 139°41'7 6.6
2016-Feb-01 02:33N 35°20' E 139°43'9 9.1
2016-Feb-01 01:33N 35°12' E 139°46'1010.1
2016-Feb-01 00:33N 35°02' E 139°44'4 4.3
2016-Jan-31 23:32N 34°57' E 139°44'11 9.3
2016-Jan-31 22:20N 34°53' E 139°57'810.6
2016-Jan-31 21:33N 34°58' E 140°05'1110.9
2016-Jan-31 20:32N 35°04' E 140°17'1210.2
2016-Jan-31 19:18N 35°12' E 140°28'810.7
2016-Jan-31 18:33N 35°19' E 140°34'1111.2
2016-Jan-31 17:33N 35°28' E 140°42'7 0.2
2016-Jan-30 05:19N 35°24' E 140°35'8 8.4
2016-Jan-30 04:24N 35°18' E 140°30'23 8.2
2016-Jan-30 01:33N 35°01' E 140°09'9 8.0
2016-Jan-30 00:26N 34°55' E 140°01'15 7.3
2016-Jan-29 22:25N 35°00' E 139°44'911.0
2016-Jan-29 21:33N 35°10' E 139°46'10 9.7
2016-Jan-29 20:33N 35°19' E 139°43'9 9.3
2016-Jan-29 19:33N 35°28' E 139°47'7 6.6
2016-Jan-29 18:33N 35°34' E 139°50'0 0.0
2016-Jan-29 17:33N 35°34' E 139°50'0 0.0
2016-Jan-29 16:33N 35°34' E 139°50'0 0.0
2016-Jan-29 15:33N 35°34' E 139°50'0 0.0
2016-Jan-29 14:33N 35°34' E 139°50'4 3.8
2016-Jan-29 13:33N 35°36' E 139°46'0 0.0
2016-Jan-29 12:33N 35°36' E 139°46'1 0.6
2016-Jan-29 11:33N 35°36' E 139°46'0 0.3
2016-Jan-29 10:33N 35°37' E 139°46'  
Track history (hours):
 
Tides and Currents Weather Stations Pressure Air Temp Water Temp Dewpoint Dewpoint Depression Visibility Wind Speed Wind Dir Waves Ship Positions

Otagawa

Last reported at 2016-Feb-08 09:33 UTC. Time now 2016-Feb-09 15:54 UTC.
Position N 35°03' E 139°31'.

Length 70 m; draft 4.7 m.

Type: Cargo ship. MMSI: 431001328.

Date/timePositionNaut miles runAvg speedWind from/ knotsBaromVisibWave heightAir tempDewpointWater temp
2016-Feb-08 09:33N 35°03' E 139°31'1110.8
2016-Feb-08 08:33N 35°09' E 139°43'10 9.6
2016-Feb-08 07:33N 35°18' E 139°44'6 6.3
2016-Feb-08 06:33N 35°24' E 139°41'0 0.0
2016-Feb-08 05:33N 35°24' E 139°41'0 0.0
2016-Feb-08 04:33N 35°24' E 139°41'1 1.2
2016-Feb-08 03:31N 35°23' E 139°40'0 0.0
2016-Feb-08 02:31N 35°23' E 139°40'0 0.0
2016-Feb-08 01:31N 35°23' E 139°40'0 0.0
2016-Feb-08 00:31N 35°23' E 139°40'0 0.0
2016-Feb-07 23:31N 35°23' E 139°40'0 0.0
2016-Feb-07 22:31N 35°23' E 139°40'0 0.0
2016-Feb-07 21:31N 35°23' E 139°40'0 0.0
2016-Feb-07 20:31N 35°23' E 139°40'0 0.0
2016-Feb-07 19:31N 35°23' E 139°40'0 0.0
2016-Feb-07 18:31N 35°23' E 139°40'0 0.0
2016-Feb-07 17:31N 35°23' E 139°40'0 0.0
2016-Feb-07 16:31N 35°23' E 139°40'4 3.9
2016-Feb-07 15:34N 35°20' E 139°43'10 9.7
2016-Feb-07 14:34N 35°11' E 139°46'20 0.4
2016-Feb-05 12:22N 34°51' E 139°42'1210.3
2016-Feb-05 11:11N 34°52' E 139°57'7 9.7
2016-Feb-05 10:29N 34°55' E 140°04'9 9.2
2016-Feb-05 09:33N 35°00' E 140°12'2110.0
2016-Feb-05 07:29N 35°15' E 140°30'1010.3
2016-Feb-05 06:31N 35°23' E 140°37'35 8.8
2016-Feb-05 02:33N 35°57' E 140°44'4 4.0
2016-Feb-05 01:33N 35°56' E 140°39'0 0.0
2016-Feb-05 00:31N 35°56' E 140°39'0 0.0
2016-Feb-04 23:33N 35°56' E 140°39'0 0.0
2016-Feb-04 22:33N 35°56' E 140°39'0 0.0
2016-Feb-04 21:33N 35°56' E 140°39'0 0.0
2016-Feb-04 20:33N 35°56' E 140°39'0 0.0
2016-Feb-04 19:33N 35°56' E 140°39'0 0.0
2016-Feb-04 18:27N 35°56' E 140°39'5 4.8
2016-Feb-04 17:28N 35°56' E 140°45'57 9.4
2016-Feb-04 11:21N 35°04' E 140°17'910.7
2016-Feb-04 10:32N 34°59' E 140°08'20 6.8
2016-Feb-04 07:33N 35°05' E 139°45'1110.6
2016-Feb-04 06:33N 35°16' E 139°46'10 9.6
2016-Feb-04 05:33N 35°25' E 139°43'4 4.2
2016-Feb-04 04:33N 35°29' E 139°45'4 3.8
2016-Feb-04 03:33N 35°26' E 139°46'1010.0
2016-Feb-04 02:33N 35°15' E 139°47'63 2.0
2016-Feb-02 18:26N 35°02' E 138°31'27 0.9
2016-Feb-01 13:12N 34°36' E 138°40'4710.0
2016-Feb-01 08:28N 35°01' E 139°29'1110.5
2016-Feb-01 07:24N 35°07' E 139°40'910.6
2016-Feb-01 06:33N 35°15' E 139°46'1010.1
2016-Feb-01 05:33N 35°24' E 139°43'2 2.3
2016-Feb-01 04:33N 35°26' E 139°41'0 0.4
2016-Feb-01 03:33N 35°27' E 139°41'7 6.6
2016-Feb-01 02:33N 35°20' E 139°43'9 9.1
2016-Feb-01 01:33N 35°12' E 139°46'1010.1
2016-Feb-01 00:33N 35°02' E 139°44'4 4.3
2016-Jan-31 23:32N 34°57' E 139°44'11 9.3
2016-Jan-31 22:20N 34°53' E 139°57'810.6
2016-Jan-31 21:33N 34°58' E 140°05'1110.9
2016-Jan-31 20:32N 35°04' E 140°17'1210.2
2016-Jan-31 19:18N 35°12' E 140°28'810.7
2016-Jan-31 18:33N 35°19' E 140°34'1111.2
2016-Jan-31 17:33N 35°28' E 140°42'7 0.2
2016-Jan-30 05:19N 35°24' E 140°35'8 8.4
2016-Jan-30 04:24N 35°18' E 140°30'23 8.2
2016-Jan-30 01:33N 35°01' E 140°09'9 8.0
2016-Jan-30 00:26N 34°55' E 140°01'15 7.3
2016-Jan-29 22:25N 35°00' E 139°44'911.0
2016-Jan-29 21:33N 35°10' E 139°46'10 9.7
2016-Jan-29 20:33N 35°19' E 139°43'9 9.3
2016-Jan-29 19:33N 35°28' E 139°47'7 6.6
2016-Jan-29 18:33N 35°34' E 139°50'0 0.0
2016-Jan-29 17:33N 35°34' E 139°50'0 0.0
2016-Jan-29 16:33N 35°34' E 139°50'0 0.0
2016-Jan-29 15:33N 35°34' E 139°50'0 0.0
2016-Jan-29 14:33N 35°34' E 139°50'4 3.8
2016-Jan-29 13:33N 35°36' E 139°46'0 0.0
2016-Jan-29 12:33N 35°36' E 139°46'1 0.6
2016-Jan-29 11:33N 35°36' E 139°46'0 0.3
2016-Jan-29 10:33N 35°37' E 139°46'  

Dump ship's entire track history